Time;durP1;ratioP1;P1;durP2;ratioP2;P2;SDS_P1;SDS_P2;PMS_P1;PMS_P2;Temp;Humidity;BMP_temperature;BMP_pressure;BME280_temperature;BME280_humidity;BME280_pressure;Samples;Min_cycle;Max_cycle;Signal;HPM_P1;HPM_P2
2023/07/30 00:01:35;;;;;;;16.15;5.10;;;;;;;;;;6212005;23;20557;-66
2023/07/30 00:04:01;;;;;;;16.98;4.20;;;;;;;;;;6210020;23;20016;-66
2023/07/30 00:06:27;;;;;;;18.67;4.43;;;;;;;;;;6212136;23;20070;-66
2023/07/30 00:08:52;;;;;;;21.92;4.85;;;;;;;;;;6212142;23;20019;-66
2023/07/30 00:11:18;;;;;;;13.40;4.70;;;;;;;;;;6211296;23;20024;-66
2023/07/30 00:13:44;;;;;;;15.95;4.15;;;;;;;;;;6211803;23;20086;-66
2023/07/30 00:16:10;;;;;;;15.27;4.88;;;;;;;;;;6210471;23;20016;-66
2023/07/30 00:18:36;;;;;;;15.30;4.47;;;;;;;;;;6211429;23;20328;-66
2023/07/30 00:21:02;;;;;;;17.73;4.18;;;;;;;;;;6212146;23;20071;-66
2023/07/30 00:23:28;;;;;;;13.07;4.30;;;;;;;;;;6212023;23;20017;-66
2023/07/30 00:25:54;;;;;;;14.43;4.05;;;;;;;;;;6211555;23;20051;-66
2023/07/30 00:28:20;;;;;;;15.70;4.50;;;;;;;;;;6211610;23;20047;-66
2023/07/30 00:30:46;;;;;;;15.85;4.70;;;;;;;;;;6212069;23;20009;-66
2023/07/30 00:33:12;;;;;;;9.98;3.80;;;;;;;;;;6211368;23;20151;-66
2023/07/30 00:35:38;;;;;;;16.98;4.65;;;;;;;;;;6211629;23;20459;-66
2023/07/30 00:38:04;;;;;;;15.95;4.25;;;;;;;;;;6211848;23;20021;-66
2023/07/30 00:40:30;;;;;;;11.20;4.20;;;;;;;;;;6211240;23;20020;-66
2023/07/30 00:42:56;;;;;;;12.68;3.88;;;;;;;;;;6211568;23;20039;-66
2023/07/30 00:45:22;;;;;;;10.50;3.85;;;;;;;;;;6211394;23;20067;-66
2023/07/30 00:47:48;;;;;;;15.25;4.60;;;;;;;;;;6209836;23;20016;-66
2023/07/30 00:50:15;;;;;;;15.13;4.60;;;;;;;;;;6211319;23;20012;-66
2023/07/30 00:52:41;;;;;;;13.60;3.95;;;;;;;;;;6211666;23;20514;-66
2023/07/30 00:55:08;;;;;;;15.13;4.55;;;;;;;;;;6211552;23;20016;-66
2023/07/30 00:57:34;;;;;;;16.88;4.43;;;;;;;;;;6211694;23;20017;-66
2023/07/30 01:00:04;;;;;;;13.20;4.45;;;;;;;;;;6184710;23;20110;-66
2023/07/30 01:02:30;;;;;;;18.65;4.68;;;;;;;;;;6210713;23;20013;-66
2023/07/30 01:04:56;;;;;;;11.00;3.90;;;;;;;;;;6211286;23;20027;-66
2023/07/30 01:07:22;;;;;;;17.35;4.38;;;;;;;;;;6211568;23;20008;-66
2023/07/30 01:09:48;;;;;;;15.05;3.95;;;;;;;;;;6211090;23;20023;-66
2023/07/30 01:12:14;;;;;;;17.45;4.63;;;;;;;;;;6211295;23;20458;-66
2023/07/30 01:14:40;;;;;;;15.38;4.53;;;;;;;;;;6211488;23;20443;-66
2023/07/30 01:17:06;;;;;;;15.35;4.85;;;;;;;;;;6210965;23;20017;-66
2023/07/30 01:19:32;;;;;;;15.95;4.22;;;;;;;;;;6211703;23;20079;-66
2023/07/30 01:21:58;;;;;;;14.80;4.50;;;;;;;;;;6211205;23;20016;-66
2023/07/30 01:24:24;;;;;;;13.80;4.53;;;;;;;;;;6210862;23;20016;-66
2023/07/30 01:26:54;;;;;;;13.65;3.85;;;;;;;;;;6211453;23;20013;-67
2023/07/30 01:29:28;;;;;;;18.75;4.20;;;;;;;;;;6210885;23;20095;-67
2023/07/30 01:31:58;;;;;;;17.15;4.25;;;;;;;;;;6210857;23;20023;-67
2023/07/30 01:34:25;;;;;;;19.33;4.47;;;;;;;;;;6211236;23;20012;-67
2023/07/30 01:36:52;;;;;;;11.70;3.65;;;;;;;;;;6210780;23;20051;-67
2023/07/30 01:39:18;;;;;;;12.38;4.07;;;;;;;;;;6210576;23;20024;-67
2023/07/30 01:41:44;;;;;;;16.00;4.32;;;;;;;;;;6211041;23;20309;-67
2023/07/30 01:44:10;;;;;;;13.82;4.32;;;;;;;;;;6211275;23;20024;-66
2023/07/30 01:46:36;;;;;;;13.88;3.92;;;;;;;;;;6210550;23;20023;-66
2023/07/30 01:49:02;;;;;;;14.68;4.10;;;;;;;;;;6211152;23;20008;-66
2023/07/30 01:51:28;;;;;;;11.20;3.58;;;;;;;;;;6211200;23;20025;-66
2023/07/30 01:53:54;;;;;;;15.25;3.67;;;;;;;;;;6210384;23;20331;-66
2023/07/30 01:56:20;;;;;;;13.55;3.72;;;;;;;;;;6210967;23;20088;-66
2023/07/30 01:58:46;;;;;;;14.07;3.53;;;;;;;;;;6210849;23;20040;-66
2023/07/30 02:01:12;;;;;;;13.75;3.65;;;;;;;;;;6210448;23;20043;-66
2023/07/30 02:03:38;;;;;;;14.57;3.35;;;;;;;;;;6211123;23;20016;-66
2023/07/30 02:06:04;;;;;;;14.90;4.03;;;;;;;;;;6211285;23;20016;-66
2023/07/30 02:08:30;;;;;;;13.80;4.15;;;;;;;;;;6210289;23;20458;-66
2023/07/30 02:10:57;;;;;;;15.55;3.88;;;;;;;;;;6210883;23;20336;-66
2023/07/30 02:13:23;;;;;;;17.27;4.07;;;;;;;;;;6210689;23;20325;-66
2023/07/30 02:15:49;;;;;;;12.00;4.07;;;;;;;;;;6210159;23;20381;-66
2023/07/30 02:18:15;;;;;;;16.08;3.75;;;;;;;;;;6211002;23;20032;-66
2023/07/30 02:20:41;;;;;;;11.55;4.25;;;;;;;;;;6210933;23;20367;-66
2023/07/30 02:23:08;;;;;;;16.92;3.42;;;;;;;;;;6210235;23;20020;-66
2023/07/30 02:25:34;;;;;;;13.88;4.07;;;;;;;;;;6210705;23;20019;-66
2023/07/30 02:28:00;;;;;;;15.63;4.38;;;;;;;;;;6210857;23;20017;-66
2023/07/30 02:30:26;;;;;;;10.80;4.00;;;;;;;;;;6183429;23;20444;-66
2023/07/30 02:32:52;;;;;;;17.83;4.05;;;;;;;;;;6210359;23;20023;-66
2023/07/30 02:35:18;;;;;;;15.65;4.07;;;;;;;;;;6210547;23;20025;-66
2023/07/30 02:37:44;;;;;;;13.95;4.13;;;;;;;;;;6209741;23;20070;-66
2023/07/30 02:40:11;;;;;;;13.90;4.05;;;;;;;;;;6210692;23;20021;-66
2023/07/30 02:42:37;;;;;;;15.23;3.65;;;;;;;;;;6210672;23;20028;-66
2023/07/30 02:45:03;;;;;;;16.83;4.93;;;;;;;;;;6210087;23;20013;-66
2023/07/30 02:47:29;;;;;;;15.60;4.32;;;;;;;;;;6210367;23;20348;-66
2023/07/30 02:49:55;;;;;;;12.15;3.67;;;;;;;;;;6210800;23;20012;-66
2023/07/30 02:52:21;;;;;;;14.38;3.88;;;;;;;;;;6210954;23;20017;-66
2023/07/30 02:54:47;;;;;;;10.75;3.60;;;;;;;;;;6210310;23;20012;-66
2023/07/30 02:57:13;;;;;;;12.02;3.90;;;;;;;;;;6210600;23;20022;-66
2023/07/30 02:59:40;;;;;;;13.48;3.47;;;;;;;;;;6210650;23;20020;-66
2023/07/30 03:02:06;;;;;;;11.93;3.67;;;;;;;;;;6209970;23;20021;-66
2023/07/30 03:04:33;;;;;;;10.57;3.53;;;;;;;;;;6210335;23;20096;-66
2023/07/30 03:06:59;;;;;;;9.98;4.00;;;;;;;;;;6210499;23;20376;-66
2023/07/30 03:09:25;;;;;;;15.88;4.03;;;;;;;;;;6208574;23;20012;-66
2023/07/30 03:11:51;;;;;;;12.60;3.45;;;;;;;;;;6210702;23;20390;-66
2023/07/30 03:14:20;;;;;;;15.90;3.78;;;;;;;;;;6211576;23;20092;-66
2023/07/30 03:16:46;;;;;;;15.02;3.78;;;;;;;;;;6212076;23;20019;-66
2023/07/30 03:19:12;;;;;;;13.05;3.67;;;;;;;;;;6212449;23;20020;-66
2023/07/30 03:21:38;;;;;;;12.73;3.67;;;;;;;;;;6212630;23;20399;-66
2023/07/30 03:24:04;;;;;;;12.23;3.22;;;;;;;;;;6211655;23;20012;-66
2023/07/30 03:26:30;;;;;;;12.38;3.45;;;;;;;;;;6212421;23;20067;-66
2023/07/30 03:28:56;;;;;;;8.15;2.60;;;;;;;;;;6212528;23;20074;-66
2023/07/30 03:31:22;;;;;;;8.00;3.03;;;;;;;;;;6211937;23;20013;-66
2023/07/30 03:33:48;;;;;;;10.90;3.47;;;;;;;;;;6212235;23;20384;-66
2023/07/30 03:36:14;;;;;;;17.40;3.28;;;;;;;;;;6211766;23;20135;-66
2023/07/30 03:38:41;;;;;;;12.32;3.20;;;;;;;;;;6211804;23;20023;-66
2023/07/30 03:41:07;;;;;;;13.70;3.30;;;;;;;;;;6212582;23;20009;-66
2023/07/30 03:43:33;;;;;;;12.57;3.47;;;;;;;;;;6211969;23;20431;-66
2023/07/30 03:45:59;;;;;;;11.98;3.20;;;;;;;;;;6211533;23;20020;-66
2023/07/30 03:48:25;;;;;;;12.82;3.55;;;;;;;;;;6212479;23;20009;-66
2023/07/30 03:50:53;;;;;;;13.40;3.85;;;;;;;;;;6185383;23;20055;-66
2023/07/30 03:53:19;;;;;;;14.23;3.13;;;;;;;;;;6211845;23;20012;-66
2023/07/30 03:55:45;;;;;;;11.35;3.30;;;;;;;;;;6212555;23;20035;-66
2023/07/30 03:58:11;;;;;;;11.90;2.97;;;;;;;;;;6212259;23;20020;-66
2023/07/30 04:00:37;;;;;;;11.40;3.50;;;;;;;;;;6211714;23;20329;-66
2023/07/30 04:03:03;;;;;;;12.43;3.70;;;;;;;;;;6211903;23;20081;-66
2023/07/30 04:05:29;;;;;;;15.05;3.30;;;;;;;;;;6211988;23;20013;-66
2023/07/30 04:07:56;;;;;;;9.15;3.20;;;;;;;;;;6211479;23;20005;-66
2023/07/30 04:10:22;;;;;;;10.13;3.00;;;;;;;;;;6212008;23;20511;-66
2023/07/30 04:12:48;;;;;;;7.97;3.20;;;;;;;;;;6212069;23;20047;-66
2023/07/30 04:15:14;;;;;;;12.93;3.63;;;;;;;;;;6211631;23;20313;-66
2023/07/30 04:17:40;;;;;;;12.75;3.22;;;;;;;;;;6211791;23;20151;-66
2023/07/30 04:20:07;;;;;;;13.02;4.13;;;;;;;;;;6212057;23;20048;-66
2023/07/30 04:22:33;;;;;;;16.30;3.67;;;;;;;;;;6211430;23;20016;-66
2023/07/30 04:24:59;;;;;;;17.00;4.55;;;;;;;;;;6211600;23;20013;-66
2023/07/30 04:27:25;;;;;;;15.93;3.55;;;;;;;;;;6211800;23;20035;-66
2023/07/30 04:29:51;;;;;;;15.18;4.20;;;;;;;;;;6211398;23;20013;-66
2023/07/30 04:32:17;;;;;;;11.13;3.53;;;;;;;;;;6211567;23;20016;-66
2023/07/30 04:34:43;;;;;;;14.55;3.20;;;;;;;;;;6211932;23;20070;-66
2023/07/30 04:37:09;;;;;;;11.75;3.40;;;;;;;;;;6210698;23;20217;-66
2023/07/30 04:39:35;;;;;;;12.43;3.47;;;;;;;;;;6211869;23;20019;-66
2023/07/30 04:42:01;;;;;;;15.02;3.65;;;;;;;;;;6211607;23;20012;-66
2023/07/30 04:44:27;;;;;;;12.15;3.67;;;;;;;;;;6211349;23;20487;-66
2023/07/30 04:46:53;;;;;;;9.35;3.60;;;;;;;;;;6211778;23;20009;-66
2023/07/30 04:49:19;;;;;;;11.15;4.15;;;;;;;;;;6211882;23;20335;-66
2023/07/30 04:51:45;;;;;;;15.10;3.60;;;;;;;;;;6211359;23;20047;-66
2023/07/30 04:54:11;;;;;;;14.50;3.50;;;;;;;;;;6211515;23;20331;-66
2023/07/30 04:56:37;;;;;;;14.77;3.50;;;;;;;;;;6211650;23;20019;-66
2023/07/30 04:59:03;;;;;;;17.27;3.75;;;;;;;;;;6211271;23;20020;-66
2023/07/30 05:01:31;;;;;;;15.82;4.00;;;;;;;;;;6211610;23;20335;-66
2023/07/30 05:03:57;;;;;;;15.70;3.67;;;;;;;;;;6211590;23;20048;-66
2023/07/30 05:06:23;;;;;;;16.05;4.07;;;;;;;;;;6210764;23;20063;-66
2023/07/30 05:08:49;;;;;;;18.80;4.10;;;;;;;;;;6211464;23;20095;-66
2023/07/30 05:11:15;;;;;;;13.77;3.60;;;;;;;;;;6211484;23;20048;-66
2023/07/30 05:13:41;;;;;;;15.98;3.95;;;;;;;;;;6210687;23;20456;-66
2023/07/30 05:16:07;;;;;;;18.67;4.10;;;;;;;;;;6211458;23;20035;-66
2023/07/30 05:18:33;;;;;;;14.60;3.70;;;;;;;;;;6211338;23;20017;-66
2023/07/30 05:20:59;;;;;;;15.93;4.07;;;;;;;;;;6210871;23;20055;-66
2023/07/30 05:23:25;;;;;;;17.98;4.22;;;;;;;;;;6211145;23;20335;-66
2023/07/30 05:25:51;;;;;;;16.15;4.22;;;;;;;;;;6211112;23;20009;-66
2023/07/30 05:28:17;;;;;;;15.73;3.55;;;;;;;;;;6184579;23;20009;-66
2023/07/30 05:30:43;;;;;;;19.30;4.10;;;;;;;;;;6211256;23;20412;-66
2023/07/30 05:33:09;;;;;;;15.15;4.35;;;;;;;;;;6211540;23;20020;-66
2023/07/30 05:35:35;;;;;;;16.10;4.10;;;;;;;;;;6210579;23;20522;-66
2023/07/30 05:38:01;;;;;;;12.88;3.70;;;;;;;;;;6211014;23;20464;-66
2023/07/30 05:40:27;;;;;;;20.83;4.25;;;;;;;;;;6211391;23;20020;-66
2023/07/30 05:42:53;;;;;;;17.00;4.05;;;;;;;;;;6210499;23;20073;-66
2023/07/30 05:45:18;;;;;;;19.98;4.95;;;;;;;;;;6211165;23;20387;-66
2023/07/30 05:47:44;;;;;;;17.27;4.25;;;;;;;;;;6211590;23;20009;-66
2023/07/30 05:50:10;;;;;;;18.10;4.75;;;;;;;;;;6210821;23;20016;-66
2023/07/30 05:52:36;;;;;;;26.30;4.63;;;;;;;;;;6184111;23;20095;-66
2023/07/30 05:55:02;;;;;;;24.05;4.55;;;;;;;;;;6210989;23;20044;-66
2023/07/30 05:57:28;;;;;;;18.50;4.00;;;;;;;;;;6184003;23;20032;-66
2023/07/30 05:59:54;;;;;;;18.83;4.38;;;;;;;;;;6210937;23;20340;-66
2023/07/30 06:02:20;;;;;;;20.95;4.30;;;;;;;;;;6210856;23;20048;-66
2023/07/30 06:04:46;;;;;;;22.30;4.40;;;;;;;;;;6210942;23;20016;-66
2023/07/30 06:07:12;;;;;;;19.30;4.38;;;;;;;;;;6210261;23;20012;-66
2023/07/30 06:09:38;;;;;;;19.23;5.13;;;;;;;;;;6210964;23;20693;-66
2023/07/30 06:12:05;;;;;;;16.27;4.00;;;;;;;;;;6210792;23;20012;-66
2023/07/30 06:14:30;;;;;;;20.75;4.57;;;;;;;;;;6210440;23;20020;-66
2023/07/30 06:16:56;;;;;;;24.35;4.60;;;;;;;;;;6184068;23;20020;-66
2023/07/30 06:19:22;;;;;;;24.55;4.88;;;;;;;;;;6211023;23;20055;-66
2023/07/30 06:21:48;;;;;;;18.40;4.55;;;;;;;;;;6210364;23;20017;-66
2023/07/30 06:24:14;;;;;;;16.55;4.00;;;;;;;;;;6210829;23;20088;-66
2023/07/30 06:26:40;;;;;;;20.52;4.13;;;;;;;;;;6210605;23;20016;-66
2023/07/30 06:29:06;;;;;;;19.48;4.07;;;;;;;;;;6183522;23;20012;-66
2023/07/30 06:31:32;;;;;;;21.17;4.72;;;;;;;;;;6210827;23;20013;-66
2023/07/30 06:33:58;;;;;;;20.17;3.83;;;;;;;;;;6210658;23;20474;-66
2023/07/30 06:36:24;;;;;;;14.07;3.67;;;;;;;;;;6210211;23;20088;-66
2023/07/30 06:38:50;;;;;;;18.58;4.57;;;;;;;;;;6210550;23;20087;-66
2023/07/30 06:41:17;;;;;;;23.45;4.85;;;;;;;;;;6210985;23;20016;-66
2023/07/30 06:43:43;;;;;;;21.27;4.93;;;;;;;;;;6209931;23;20100;-66
2023/07/30 06:46:08;;;;;;;20.98;4.18;;;;;;;;;;6210878;23;20425;-66
2023/07/30 06:48:34;;;;;;;19.73;3.92;;;;;;;;;;6211293;23;20012;-66
2023/07/30 06:51:00;;;;;;;19.00;4.10;;;;;;;;;;6212282;23;20016;-66
2023/07/30 06:53:26;;;;;;;16.58;3.97;;;;;;;;;;6212824;23;20019;-66
2023/07/30 06:55:52;;;;;;;17.60;4.20;;;;;;;;;;6212989;23;20021;-66
2023/07/30 06:58:18;;;;;;;16.92;3.45;;;;;;;;;;6212524;23;20369;-66
2023/07/30 07:00:44;;;;;;;21.52;3.88;;;;;;;;;;6212797;23;20009;-66
2023/07/30 07:03:10;;;;;;;18.48;3.10;;;;;;;;;;6212334;23;20017;-66
2023/07/30 07:05:36;;;;;;;13.68;3.30;;;;;;;;;;6212161;23;20012;-66
2023/07/30 07:08:02;;;;;;;17.13;3.80;;;;;;;;;;6212521;23;20044;-66
2023/07/30 07:10:28;;;;;;;15.82;3.80;;;;;;;;;;6212411;23;20043;-66
2023/07/30 07:12:54;;;;;;;15.27;3.50;;;;;;;;;;6211986;23;20017;-66
2023/07/30 07:15:20;;;;;;;16.23;3.20;;;;;;;;;;6212698;23;20016;-66
2023/07/30 07:17:46;;;;;;;16.25;3.88;;;;;;;;;;6212439;23;20391;-66
2023/07/30 07:20:12;;;;;;;12.60;3.60;;;;;;;;;;6210433;23;20039;-66
2023/07/30 07:22:38;;;;;;;18.02;3.60;;;;;;;;;;6212122;23;20340;-66
2023/07/30 07:25:04;;;;;;;20.15;4.45;;;;;;;;;;6212475;23;20012;-66
2023/07/30 07:27:30;;;;;;;17.83;3.88;;;;;;;;;;6211876;23;20056;-66
2023/07/30 07:29:56;;;;;;;15.27;3.33;;;;;;;;;;6212485;23;20452;-66
2023/07/30 07:32:22;;;;;;;13.45;2.83;;;;;;;;;;6212211;23;20104;-66
2023/07/30 07:34:48;;;;;;;13.40;3.05;;;;;;;;;;6211871;23;20016;-66
2023/07/30 07:37:15;;;;;;;10.95;3.03;;;;;;;;;;6210350;23;20029;-66
2023/07/30 07:39:44;;;;;;;12.93;2.95;;;;;;;;;;6212154;23;20016;-66
2023/07/30 07:42:10;;;;;;;16.27;3.15;;;;;;;;;;6211331;23;20012;-66
2023/07/30 07:44:36;;;;;;;10.50;2.70;;;;;;;;;;6212037;23;20088;-66
2023/07/30 07:47:02;;;;;;;16.98;3.30;;;;;;;;;;6212266;23;20015;-66
2023/07/30 07:49:28;;;;;;;15.55;2.92;;;;;;;;;;6211579;23;20004;-67
2023/07/30 07:51:54;;;;;;;16.00;3.13;;;;;;;;;;6212275;23;20032;-67
2023/07/30 07:54:20;;;;;;;13.60;3.10;;;;;;;;;;6212112;23;20020;-67
2023/07/30 07:56:46;;;;;;;16.08;3.05;;;;;;;;;;6211762;23;20250;-67
2023/07/30 07:59:12;;;;;;;9.20;2.80;;;;;;;;;;6212024;23;20017;-67
2023/07/30 08:01:38;;;;;;;14.38;3.10;;;;;;;;;;6212212;23;20476;-67
2023/07/30 08:04:04;;;;;;;11.43;2.33;;;;;;;;;;6211490;23;20087;-67
2023/07/30 08:06:32;;;;;;;9.48;2.35;;;;;;;;;;6212122;23;20013;-67
2023/07/30 08:08:58;;;;;;;12.95;2.60;;;;;;;;;;6212074;23;20055;-67
2023/07/30 08:11:24;;;;;;;14.57;2.78;;;;;;;;;;6211700;23;20013;-67
2023/07/30 08:13:50;;;;;;;12.20;2.47;;;;;;;;;;6211514;23;20141;-67
2023/07/30 08:16:16;;;;;;;7.70;1.98;;;;;;;;;;6212469;23;20068;-67
2023/07/30 08:18:42;;;;;;;13.38;2.42;;;;;;;;;;6211532;23;20462;-67
2023/07/30 08:21:08;;;;;;;11.55;2.22;;;;;;;;;;6212177;23;20135;-67
2023/07/30 08:23:33;;;;;;;17.40;2.97;;;;;;;;;;6211608;23;20020;-67
2023/07/30 08:25:59;;;;;;;16.50;2.72;;;;;;;;;;6211570;23;20081;-67
2023/07/30 08:28:25;;;;;;;14.50;2.90;;;;;;;;;;6212355;23;20016;-67
2023/07/30 08:30:51;;;;;;;9.65;2.70;;;;;;;;;;6211672;23;20332;-67
2023/07/30 08:33:17;;;;;;;8.90;2.17;;;;;;;;;;6211097;23;20047;-66
2023/07/30 08:35:43;;;;;;;12.15;2.58;;;;;;;;;;6211548;23;20358;-66
2023/07/30 08:38:09;;;;;;;12.32;3.00;;;;;;;;;;6212017;23;20454;-66
2023/07/30 08:40:35;;;;;;;11.10;2.55;;;;;;;;;;6211624;23;20098;-66
2023/07/30 08:43:03;;;;;;;6.35;1.55;;;;;;;;;;6211735;23;20016;-66
2023/07/30 08:45:29;;;;;;;7.88;2.05;;;;;;;;;;6212163;23;20471;-66
2023/07/30 08:47:55;;;;;;;6.40;1.40;;;;;;;;;;6211462;23;20032;-66
2023/07/30 08:50:21;;;;;;;6.43;1.63;;;;;;;;;;6211754;23;20020;-66
2023/07/30 08:52:48;;;;;;;7.45;1.67;;;;;;;;;;6211670;23;20016;-66
2023/07/30 08:55:15;;;;;;;8.63;1.55;;;;;;;;;;6211239;23;20309;-66
2023/07/30 08:57:43;;;;;;;10.27;1.92;;;;;;;;;;6212011;23;20017;-66
2023/07/30 09:00:10;;;;;;;9.63;1.92;;;;;;;;;;6211886;23;20039;-66
2023/07/30 09:02:48;;;;;;;10.63;2.78;;;;;;;;;;6211445;23;20092;-66
2023/07/30 09:05:14;;;;;;;10.93;2.38;;;;;;;;;;6211568;23;20012;-66
2023/07/30 09:07:41;;;;;;;10.27;2.05;;;;;;;;;;6211563;23;20392;-66
2023/07/30 09:10:07;;;;;;;8.07;1.75;;;;;;;;;;6211159;23;20019;-66
2023/07/30 09:12:34;;;;;;;6.78;1.52;;;;;;;;;;6211069;23;20083;-66
2023/07/30 09:15:00;;;;;;;7.82;2.15;;;;;;;;;;6211466;23;20020;-66
2023/07/30 09:17:26;;;;;;;10.48;2.15;;;;;;;;;;6211182;23;20070;-66
2023/07/30 09:19:53;;;;;;;13.40;2.80;;;;;;;;;;6211616;23;20382;-66
2023/07/30 09:22:26;;;;;;;9.50;2.58;;;;;;;;;;6211333;23;20074;-66
2023/07/30 09:24:52;;;;;;;6.47;3.60;;;;;;;;;;6211042;23;20355;-66
2023/07/30 09:27:22;;;;;;;12.40;3.53;;;;;;;;;;6211405;23;20375;-66
2023/07/30 09:29:55;;;;;;;11.13;3.53;;;;;;;;;;6211397;23;20016;-66
2023/07/30 09:32:25;;;;;;;10.05;3.15;;;;;;;;;;6210790;23;20023;-66
2023/07/30 09:34:51;;;;;;;15.70;3.35;;;;;;;;;;6211152;23;20379;-66
2023/07/30 09:37:17;;;;;;;13.68;2.22;;;;;;;;;;6210999;23;20020;-66
2023/07/30 09:39:43;;;;;;;19.23;2.65;;;;;;;;;;6209452;23;20067;-64
2023/07/30 09:42:09;;;;;;;8.40;1.95;;;;;;;;;;6211100;23;20021;-64
2023/07/30 09:44:36;;;;;;;9.73;2.40;;;;;;;;;;6211538;23;20365;-65
2023/07/30 09:47:06;;;;;;;8.25;2.13;;;;;;;;;;6209115;23;20046;-65
2023/07/30 09:49:32;;;;;;;7.40;2.30;;;;;;;;;;6211026;23;20048;-65
2023/07/30 09:51:58;;;;;;;11.75;2.90;;;;;;;;;;6211215;23;20050;-65
2023/07/30 09:54:24;;;;;;;7.97;2.95;;;;;;;;;;6210806;23;20019;-65
2023/07/30 09:56:50;;;;;;;7.78;2.55;;;;;;;;;;6211313;23;20313;-65
2023/07/30 09:59:17;;;;;;;9.88;2.58;;;;;;;;;;6211202;23;20017;-65
2023/07/30 10:01:44;;;;;;;10.20;2.70;;;;;;;;;;6210711;23;20059;-65
2023/07/30 10:04:11;;;;;;;6.13;2.35;;;;;;;;;;6211002;23;20334;-65
2023/07/30 10:06:57;;;;;;;7.90;2.30;;;;;;;;;;6210996;23;20339;-65
2023/07/30 10:09:23;;;;;;;8.90;2.35;;;;;;;;;;6210637;23;20012;-65
2023/07/30 10:11:51;;;;;;;14.45;2.72;;;;;;;;;;6211204;23;20016;-65
2023/07/30 10:14:18;;;;;;;9.52;2.42;;;;;;;;;;6210960;23;20444;-65
2023/07/30 10:16:54;;;;;;;9.35;3.00;;;;;;;;;;6210436;23;20020;-65
2023/07/30 10:19:23;;;;;;;8.80;2.25;;;;;;;;;;6211011;23;20060;-65
2023/07/30 10:21:49;;;;;;;13.45;4.10;;;;;;;;;;6210880;23;20028;-65
2023/07/30 10:24:15;;;;;;;7.07;2.63;;;;;;;;;;6210001;23;20016;-65
2023/07/30 10:26:41;;;;;;;10.15;3.10;;;;;;;;;;6210812;23;20013;-65
2023/07/30 10:29:18;;;;;;;12.95;3.55;;;;;;;;;;6211013;23;20340;-65
2023/07/30 10:31:57;;;;;;;7.78;2.67;;;;;;;;;;6210650;23;20066;-65
2023/07/30 10:34:27;;;;;;;9.10;2.97;;;;;;;;;;6210734;23;20080;-65
2023/07/30 10:36:55;;;;;;;13.55;2.80;;;;;;;;;;6210652;23;20012;-65
2023/07/30 10:39:28;;;;;;;10.95;2.47;;;;;;;;;;6210255;23;20016;-65
2023/07/30 10:41:55;;;;;;;13.90;2.75;;;;;;;;;;6208885;23;20021;-65
2023/07/30 10:44:25;;;;;;;9.10;2.25;;;;;;;;;;6183852;23;20461;-65
2023/07/30 10:46:52;;;;;;;11.25;3.00;;;;;;;;;;6210131;23;20016;-65
2023/07/30 10:49:18;;;;;;;11.32;2.22;;;;;;;;;;6184276;23;20108;-65
2023/07/30 10:51:44;;;;;;;15.13;2.80;;;;;;;;;;6210814;23;20036;-65
2023/07/30 10:54:10;;;;;;;8.65;2.55;;;;;;;;;;6210010;23;20012;-65
2023/07/30 10:56:41;;;;;;;14.05;2.50;;;;;;;;;;6210912;23;20394;-65
2023/07/30 10:59:07;;;;;;;10.15;2.78;;;;;;;;;;6210781;23;20066;-65
2023/07/30 11:01:38;;;;;;;10.15;2.30;;;;;;;;;;6210288;23;20023;-65
2023/07/30 11:04:06;;;;;;;12.52;2.42;;;;;;;;;;6210718;23;20008;-66
2023/07/30 11:06:32;;;;;;;16.05;3.15;;;;;;;;;;6210705;23;20008;-66
2023/07/30 11:08:58;;;;;;;13.50;2.60;;;;;;;;;;6210759;23;20443;-66
2023/07/30 11:11:25;;;;;;;7.80;2.13;;;;;;;;;;6210756;23;20382;-66
2023/07/30 11:13:51;;;;;;;7.72;2.13;;;;;;;;;;6211158;23;20248;-66
2023/07/30 11:16:17;;;;;;;10.68;2.00;;;;;;;;;;6210162;23;20017;-66
2023/07/30 11:18:44;;;;;;;8.20;2.00;;;;;;;;;;6210796;23;20329;-66
2023/07/30 11:21:14;;;;;;;8.80;1.88;;;;;;;;;;6184117;23;20317;-66
2023/07/30 11:23:44;;;;;;;12.65;2.28;;;;;;;;;;6209964;23;20027;-66
2023/07/30 11:26:13;;;;;;;6.60;1.73;;;;;;;;;;6210513;23;20064;-66
2023/07/30 11:28:40;;;;;;;11.57;1.90;;;;;;;;;;6210557;23;20016;-66
2023/07/30 11:31:07;;;;;;;9.88;2.47;;;;;;;;;;6210075;23;20015;-66
2023/07/30 11:33:34;;;;;;;6.68;1.60;;;;;;;;;;6183499;23;20017;-66
2023/07/30 11:36:01;;;;;;;13.32;1.88;;;;;;;;;;6211911;23;20091;-66
2023/07/30 11:38:28;;;;;;;5.32;1.55;;;;;;;;;;6211992;23;20192;-66
2023/07/30 11:40:54;;;;;;;11.43;2.45;;;;;;;;;;6212463;23;20016;-66
2023/07/30 11:43:21;;;;;;;9.57;1.63;;;;;;;;;;6212042;23;20474;-66
2023/07/30 11:45:47;;;;;;;9.95;1.75;;;;;;;;;;6211695;23;20016;-66
2023/07/30 11:48:13;;;;;;;10.48;2.65;;;;;;;;;;6212341;23;20025;-66
2023/07/30 11:50:46;;;;;;;8.30;1.85;;;;;;;;;;6212294;23;20017;-66
2023/07/30 11:53:13;;;;;;;7.35;1.65;;;;;;;;;;6211564;23;20023;-66
2023/07/30 11:55:39;;;;;;;10.27;1.92;;;;;;;;;;6212228;23;20448;-66
2023/07/30 11:58:09;;;;;;;10.25;2.08;;;;;;;;;;6212220;23;20020;-66
2023/07/30 12:00:37;;;;;;;5.68;1.70;;;;;;;;;;6211871;23;20012;-66
2023/07/30 12:03:04;;;;;;;9.30;1.58;;;;;;;;;;6185129;23;20396;-66
2023/07/30 12:05:37;;;;;;;8.52;1.70;;;;;;;;;;6212101;23;20139;-66
2023/07/30 12:08:04;;;;;;;6.07;1.65;;;;;;;;;;6211305;23;20064;-66
2023/07/30 12:10:43;;;;;;;7.22;1.77;;;;;;;;;;6212486;23;20505;-66
2023/07/30 12:13:19;;;;;;;11.15;2.03;;;;;;;;;;6211846;23;20102;-66
2023/07/30 12:15:52;;;;;;;7.38;1.42;;;;;;;;;;6212078;23;20016;-66
2023/07/30 12:18:18;;;;;;;5.43;1.63;;;;;;;;;;6212033;23;20021;-66
2023/07/30 12:20:44;;;;;;;7.10;1.63;;;;;;;;;;6212356;23;20012;-66
2023/07/30 12:23:10;;;;;;;6.45;2.03;;;;;;;;;;6211320;23;20339;-66
2023/07/30 12:25:36;;;;;;;10.18;1.85;;;;;;;;;;6211997;23;20345;-66
2023/07/30 12:28:02;;;;;;;6.60;1.50;;;;;;;;;;6211488;23;20340;-66
2023/07/30 12:30:28;;;;;;;11.60;2.00;;;;;;;;;;6211658;23;20013;-66
2023/07/30 12:32:54;;;;;;;9.63;2.10;;;;;;;;;;6211490;23;20078;-66
2023/07/30 12:35:21;;;;;;;6.45;1.50;;;;;;;;;;6211736;23;20043;-66
2023/07/30 12:37:46;;;;;;;6.57;1.60;;;;;;;;;;6210820;23;20057;-66
2023/07/30 12:40:12;;;;;;;6.75;1.80;;;;;;;;;;6211768;23;20435;-66
2023/07/30 12:42:38;;;;;;;11.32;2.22;;;;;;;;;;6211502;23;20063;-66
2023/07/30 12:45:05;;;;;;;9.05;2.28;;;;;;;;;;6211195;23;20079;-66
2023/07/30 12:47:31;;;;;;;11.57;2.22;;;;;;;;;;6211347;23;20026;-66
2023/07/30 12:49:56;;;;;;;7.40;1.65;;;;;;;;;;6211849;23;20492;-66
2023/07/30 12:52:22;;;;;;;4.40;1.38;;;;;;;;;;6211377;23;20013;-66
2023/07/30 12:54:49;;;;;;;5.15;1.13;;;;;;;;;;6211741;23;20028;-66
2023/07/30 12:57:15;;;;;;;5.15;1.27;;;;;;;;;;6211871;23;20091;-66
2023/07/30 12:59:41;;;;;;;6.40;1.70;;;;;;;;;;6210759;23;20048;-66
2023/07/30 13:02:07;;;;;;;6.55;1.30;;;;;;;;;;6211510;23;20044;-66
2023/07/30 13:04:33;;;;;;;3.30;1.55;;;;;;;;;;6211482;23;20036;-66
2023/07/30 13:06:59;;;;;;;5.93;1.35;;;;;;;;;;6210861;23;20028;-66
2023/07/30 13:09:25;;;;;;;7.07;1.33;;;;;;;;;;6211762;23;20012;-66
2023/07/30 13:11:51;;;;;;;5.88;1.60;;;;;;;;;;6211842;23;20331;-66
2023/07/30 13:14:17;;;;;;;4.78;1.25;;;;;;;;;;6210655;23;20050;-66
2023/07/30 13:16:43;;;;;;;6.03;1.67;;;;;;;;;;6211511;23;20435;-66
2023/07/30 13:19:09;;;;;;;6.63;1.65;;;;;;;;;;6211640;23;20090;-66
2023/07/30 13:21:35;;;;;;;5.68;1.40;;;;;;;;;;6211145;23;20008;-66
2023/07/30 13:24:01;;;;;;;8.98;1.73;;;;;;;;;;6211495;23;20077;-66
2023/07/30 13:26:27;;;;;;;14.85;3.00;;;;;;;;;;6211421;23;20075;-66
2023/07/30 13:28:53;;;;;;;8.65;1.55;;;;;;;;;;6211356;23;20276;-66
2023/07/30 13:31:19;;;;;;;7.07;1.88;;;;;;;;;;6211137;23;20031;-66
2023/07/30 13:33:47;;;;;;;6.43;1.67;;;;;;;;;;6211285;23;20084;-66
2023/07/30 13:36:13;;;;;;;7.95;1.83;;;;;;;;;;6211014;23;20017;-66
2023/07/30 13:38:39;;;;;;;9.25;1.77;;;;;;;;;;6211005;23;20015;-66
2023/07/30 13:41:05;;;;;;;5.80;1.65;;;;;;;;;;6211330;23;20091;-66
2023/07/30 13:43:32;;;;;;;6.72;1.45;;;;;;;;;;6210966;23;20017;-66
2023/07/30 13:45:58;;;;;;;7.00;1.60;;;;;;;;;;6210912;23;20091;-66
2023/07/30 13:48:27;;;;;;;7.45;1.42;;;;;;;;;;6210784;23;20063;-66
2023/07/30 13:50:53;;;;;;;6.13;1.30;;;;;;;;;;6211252;23;20058;-66
2023/07/30 13:53:19;;;;;;;6.63;1.60;;;;;;;;;;6210633;23;20478;-66
2023/07/30 13:55:45;;;;;;;7.40;1.40;;;;;;;;;;6211312;23;20325;-66
2023/07/30 13:58:11;;;;;;;7.20;1.55;;;;;;;;;;6210896;23;20038;-66
2023/07/30 14:00:40;;;;;;;5.13;1.20;;;;;;;;;;6210423;23;20020;-66
2023/07/30 14:03:06;;;;;;;5.60;1.02;;;;;;;;;;6210906;23;20013;-66
2023/07/30 14:05:32;;;;;;;7.88;1.40;;;;;;;;;;6184003;23;20087;-66
2023/07/30 14:07:58;;;;;;;7.05;1.85;;;;;;;;;;6210590;23;20036;-66
2023/07/30 14:10:24;;;;;;;6.00;1.20;;;;;;;;;;6210922;23;20013;-66
2023/07/30 14:12:50;;;;;;;7.50;1.40;;;;;;;;;;6210510;23;20020;-66
2023/07/30 14:15:16;;;;;;;4.93;1.00;;;;;;;;;;6210463;23;20013;-66
2023/07/30 14:17:42;;;;;;;3.72;1.20;;;;;;;;;;6210926;23;20091;-66
2023/07/30 14:20:09;;;;;;;6.82;1.08;;;;;;;;;;6183997;23;20044;-66
2023/07/30 14:22:35;;;;;;;4.45;1.13;;;;;;;;;;6210323;23;20087;-66
2023/07/30 14:25:02;;;;;;;4.78;1.00;;;;;;;;;;6211051;23;20020;-66
2023/07/30 14:27:28;;;;;;;5.25;1.40;;;;;;;;;;6210826;23;20335;-66
2023/07/30 14:29:54;;;;;;;3.50;1.27;;;;;;;;;;6210335;23;20432;-66